createdAt,value
2022-12-18T00:00:10.958Z,99627.16
2022-12-18T00:01:19.395Z,99638.97
2022-12-18T00:02:21.185Z,99636.19
2022-12-18T00:03:22.751Z,99637.59
2022-12-18T00:04:25.715Z,99637.78
2022-12-18T00:05:27.355Z,99636.59
2022-12-18T00:06:30.605Z,99646.22
2022-12-18T00:07:31.968Z,99648.19
2022-12-18T00:08:33.417Z,99647.25
2022-12-18T00:09:39.778Z,99635.63
2022-12-18T00:10:42.197Z,99637.00
2022-12-18T00:11:44.098Z,99636.63
2022-12-18T00:12:48.962Z,99630.13
2022-12-18T00:13:50.544Z,99634.63
2022-12-18T00:14:52.081Z,99645.25
2022-12-18T00:15:53.607Z,99637.19
2022-12-18T00:17:01.541Z,99633.66
2022-12-18T00:18:03.336Z,99631.50
2022-12-18T00:19:06.347Z,99638.34
2022-12-18T00:20:08.581Z,99641.09
2022-12-18T00:21:11.758Z,99627.56
2022-12-18T00:22:13.214Z,99630.31
2022-12-18T00:23:14.646Z,99623.84
2022-12-18T00:24:16.480Z,99624.78
2022-12-18T00:25:17.906Z,99627.16
2022-12-18T00:26:22.984Z,99629.13
2022-12-18T00:27:24.423Z,99627.97
2022-12-18T00:28:25.883Z,99630.31
2022-12-18T00:29:27.406Z,99625.03
2022-12-18T00:30:29.072Z,99626.38
2022-12-18T00:31:30.667Z,99632.66
2022-12-18T00:32:33.483Z,99629.91
2022-12-18T00:33:35.874Z,99631.31
2022-12-18T00:34:37.935Z,99626.38
2022-12-18T00:35:39.375Z,99635.22
2022-12-18T00:36:42.100Z,99639.13
2022-12-18T00:37:43.578Z,99636.56
2022-12-18T00:38:46.035Z,99634.19
2022-12-18T00:39:49.548Z,99643.25
2022-12-18T00:40:51.346Z,99634.00
2022-12-18T00:42:11.606Z,99639.50
2022-12-18T00:43:13.118Z,99642.84
2022-12-18T00:44:17.173Z,99634.41
2022-12-18T00:45:18.659Z,99635.59
2022-12-18T00:46:20.213Z,99629.53
2022-12-18T00:47:21.686Z,99633.44
2022-12-18T00:48:23.310Z,99632.06
2022-12-18T00:49:25.113Z,99624.00
2022-12-18T00:50:26.988Z,99629.28
2022-12-18T00:51:28.748Z,99631.25
2022-12-18T00:52:30.236Z,99633.03
2022-12-18T00:53:31.741Z,99631.63
2022-12-18T00:54:33.525Z,99624.53
2022-12-18T00:55:35.345Z,99625.34
2022-12-18T00:56:45.761Z,99611.97
2022-12-18T00:57:52.796Z,99609.63
2022-12-18T00:58:54.324Z,99613.53
2022-12-18T00:59:56.285Z,99610.97
2022-12-18T01:00:57.737Z,99625.13
2022-12-18T01:01:59.731Z,99622.41
2022-12-18T01:03:01.325Z,99626.31
2022-12-18T01:04:04.202Z,99627.69
2022-12-18T01:05:06.305Z,99625.88
2022-12-18T01:06:09.492Z,99635.50
2022-12-18T01:07:10.900Z,99637.06
2022-12-18T01:08:12.469Z,99635.72
2022-12-18T01:09:14.888Z,99645.50
2022-12-18T01:10:16.360Z,99645.50
2022-12-18T01:11:20.364Z,99648.28
2022-12-18T01:12:21.907Z,99647.69
2022-12-18T01:13:23.350Z,99655.16
2022-12-18T01:14:25.260Z,99659.34
2022-12-18T01:15:26.874Z,99656.53
2022-12-18T01:16:28.555Z,99665.97
2022-12-18T01:17:30.098Z,99669.31
2022-12-18T01:18:31.575Z,99667.09
2022-12-18T01:19:33.307Z,99661.22
2022-12-18T01:20:34.776Z,99661.63
2022-12-18T01:21:36.492Z,99673.25
2022-12-18T01:22:38.015Z,99663.19
2022-12-18T01:23:39.999Z,99665.38
2022-12-18T01:24:42.186Z,99672.84
2022-12-18T01:25:43.616Z,99666.59
2022-12-18T01:26:45.025Z,99666.97
2022-12-18T01:27:46.479Z,99669.34
2022-12-18T01:28:47.998Z,99664.81
2022-12-18T01:29:50.795Z,99668.94
2022-12-18T01:30:52.609Z,99670.13
2022-12-18T01:31:56.457Z,99667.78
2022-12-18T01:32:58.577Z,99672.66
2022-12-18T01:34:05.942Z,99675.34
2022-12-18T01:35:07.994Z,99675.41
2022-12-18T01:36:15.957Z,99676.81
2022-12-18T01:37:17.464Z,99675.81
2022-12-18T01:38:18.967Z,99682.84
2022-12-18T01:39:20.762Z,99680.84
2022-12-18T01:40:22.871Z,99684.75
2022-12-18T01:41:27.851Z,99687.16
2022-12-18T01:42:29.397Z,99685.56
2022-12-18T01:43:53.518Z,99690.69
2022-12-18T01:45:07.748Z,99680.63
2022-12-18T01:46:09.259Z,99681.22
2022-12-18T01:47:34.149Z,99687.09
2022-12-18T01:48:35.666Z,99686.75
2022-12-18T01:49:37.476Z,99681.06
2022-12-18T01:50:43.974Z,99686.75
2022-12-18T01:51:45.478Z,99688.97
2022-12-18T01:53:00.433Z,99686.41
2022-12-18T01:54:01.925Z,99689.75
2022-12-18T01:55:06.251Z,99685.00
2022-12-18T01:56:09.879Z,99684.78
2022-12-18T01:57:11.524Z,99683.22
2022-12-18T01:58:13.441Z,99679.84
2022-12-18T01:59:15.653Z,99675.53
2022-12-18T02:00:20.576Z,99691.22
2022-12-18T02:01:26.252Z,99688.22
2022-12-18T02:02:30.092Z,99689.78
2022-12-18T02:03:31.706Z,99694.31
2022-12-18T02:04:33.522Z,99682.69
2022-12-18T02:05:49.234Z,99692.97
2022-12-18T02:07:01.015Z,99683.75
2022-12-18T02:08:08.117Z,99688.09
2022-12-18T02:09:30.820Z,99693.22
2022-12-18T02:10:53.801Z,99690.06
2022-12-18T02:12:08.963Z,99686.88
2022-12-18T02:13:22.080Z,99694.53
2022-12-18T02:14:45.075Z,99688.81
2022-12-18T02:16:00.139Z,99691.38
2022-12-18T02:17:12.645Z,99693.19
2022-12-18T02:18:22.148Z,99686.69
2022-12-18T02:19:56.311Z,99691.25
2022-12-18T02:21:05.849Z,99692.84
2022-12-18T02:22:27.355Z,99694.78
2022-12-18T02:23:50.092Z,99694.38
2022-12-18T02:25:02.761Z,99690.44
2022-12-18T02:26:07.602Z,99683.34
2022-12-18T02:27:11.669Z,99679.44
2022-12-18T02:28:19.449Z,99674.47
2022-12-18T02:29:46.534Z,99673.69
2022-12-18T02:30:51.838Z,99673.72
2022-12-18T02:31:56.857Z,99676.25
2022-12-18T02:33:00.066Z,99675.25
2022-12-18T02:34:04.089Z,99683.63
2022-12-18T02:35:08.083Z,99684.78
2022-12-18T02:36:11.878Z,99693.00
2022-12-18T02:37:17.671Z,99693.91
2022-12-18T02:38:19.277Z,99697.25
2022-12-18T02:39:23.077Z,99685.50
2022-12-18T02:40:27.196Z,99691.03
2022-12-18T02:41:29.496Z,99690.63
2022-12-18T02:42:31.616Z,99695.38
2022-12-18T02:43:33.087Z,99699.28
2022-12-18T02:44:39.027Z,99706.16
2022-12-18T02:45:54.755Z,99711.34
2022-12-18T02:46:56.381Z,99704.06
2022-12-18T02:47:57.927Z,99711.97
2022-12-18T02:49:10.671Z,99709.22
2022-12-18T02:50:27.803Z,99712.88
2022-12-18T02:51:46.558Z,99717.78
2022-12-18T02:53:03.146Z,99715.56
2022-12-18T02:54:17.405Z,99717.56
2022-12-18T02:55:49.726Z,99727.44
2022-12-18T02:56:58.826Z,99723.00
2022-12-18T02:58:16.710Z,99723.84
2022-12-18T02:59:25.395Z,99723.75
2022-12-18T03:00:40.053Z,99727.34
2022-12-18T03:01:54.673Z,99721.50
2022-12-18T03:03:08.189Z,99726.22
2022-12-18T03:04:41.777Z,99725.28
2022-12-18T03:06:10.598Z,99717.66
2022-12-18T03:07:20.402Z,99720.81
2022-12-18T03:08:37.052Z,99716.34
2022-12-18T03:09:44.591Z,99712.81
2022-12-18T03:10:56.789Z,99706.75
2022-12-18T03:12:23.520Z,99709.31
2022-12-18T03:13:35.178Z,99699.50
2022-12-18T03:14:39.129Z,99701.50
2022-12-18T03:15:48.754Z,99695.00
2022-12-18T03:16:55.012Z,99691.47
2022-12-18T03:18:02.847Z,99697.56
2022-12-18T03:19:13.114Z,99698.72
2022-12-18T03:20:18.770Z,99698.31
2022-12-18T03:21:27.482Z,99703.44
2022-12-18T03:22:33.134Z,99704.22
2022-12-18T03:23:43.959Z,99701.06
2022-12-18T03:24:47.597Z,99700.47
2022-12-18T03:25:52.717Z,99702.03
2022-12-18T03:26:59.093Z,99700.03
2022-12-18T03:28:03.880Z,99712.03
2022-12-18T03:29:10.009Z,99707.13
2022-12-18T03:30:14.623Z,99716.56
2022-12-18T03:31:17.551Z,99714.19
2022-12-18T03:32:32.339Z,99715.13
2022-12-18T03:33:53.222Z,99718.09
2022-12-18T03:34:59.981Z,99720.41
2022-12-18T03:36:02.018Z,99717.06
2022-12-18T03:37:03.651Z,99715.28
2022-12-18T03:38:05.501Z,99721.03
2022-12-18T03:39:06.990Z,99718.91
2022-12-18T03:40:09.461Z,99720.88
2022-12-18T03:41:44.419Z,99722.47
2022-12-18T03:43:11.334Z,99723.25
2022-12-18T03:44:26.219Z,99724.25
2022-12-18T03:45:36.045Z,99721.28
2022-12-18T03:46:50.480Z,99726.78
2022-12-18T03:48:18.693Z,99726.03
2022-12-18T03:49:31.381Z,99730.13
2022-12-18T03:50:48.125Z,99728.22
2022-12-18T03:51:55.407Z,99722.31
2022-12-18T03:53:15.562Z,99729.78
2022-12-18T03:54:18.217Z,99725.28
2022-12-18T03:55:22.586Z,99724.66
2022-12-18T03:56:26.835Z,99730.41
2022-12-18T03:57:31.890Z,99730.19
2022-12-18T03:58:35.153Z,99722.72
2022-12-18T03:59:38.801Z,99733.75
2022-12-18T04:00:40.990Z,99736.88
2022-12-18T04:01:48.480Z,99734.25
2022-12-18T04:02:54.159Z,99742.91
2022-12-18T04:03:57.807Z,99737.03
2022-12-18T04:05:03.623Z,99735.88
2022-12-18T04:06:07.053Z,99739.78
2022-12-18T04:07:08.885Z,99737.44
2022-12-18T04:08:10.558Z,99734.66
2022-12-18T04:09:12.245Z,99737.81
2022-12-18T04:10:15.776Z,99737.22
2022-12-18T04:11:17.650Z,99739.16
2022-12-18T04:12:19.073Z,99735.25
2022-12-18T04:13:25.022Z,99739.44
2022-12-18T04:14:26.503Z,99727.84
2022-12-18T04:15:28.386Z,99732.19
2022-12-18T04:16:30.191Z,99742.03
2022-12-18T04:17:31.613Z,99735.75
2022-12-18T04:18:33.166Z,99734.78
2022-12-18T04:19:35.072Z,99737.94
2022-12-18T04:20:36.533Z,99744.44
2022-12-18T04:21:37.972Z,99740.47
2022-12-18T04:22:39.409Z,99744.66
2022-12-18T04:23:41.291Z,99740.94
2022-12-18T04:24:43.391Z,99737.75
2022-12-18T04:25:44.872Z,99746.84
2022-12-18T04:26:46.506Z,99738.16
2022-12-18T04:27:47.930Z,99740.34
2022-12-18T04:28:49.396Z,99744.06
2022-12-18T04:29:51.161Z,99745.66
2022-12-18T04:30:52.596Z,99742.50
2022-12-18T04:31:54.055Z,99753.31
2022-12-18T04:32:55.463Z,99756.88
2022-12-18T04:33:56.935Z,99748.41
2022-12-18T04:34:58.695Z,99753.53
2022-12-18T04:36:00.224Z,99755.50
2022-12-18T04:37:01.861Z,99754.75
2022-12-18T04:38:03.344Z,99749.81
2022-12-18T04:39:05.186Z,99747.28
2022-12-18T04:40:07.589Z,99755.94
2022-12-18T04:41:09.151Z,99754.31
2022-12-18T04:42:10.606Z,99744.88
2022-12-18T04:43:12.162Z,99750.97
2022-12-18T04:44:13.865Z,99759.28
2022-12-18T04:45:15.695Z,99747.25
2022-12-18T04:46:17.241Z,99749.22
2022-12-18T04:47:18.748Z,99742.91
2022-12-18T04:48:21.218Z,99750.59
2022-12-18T04:49:23.066Z,99742.72
2022-12-18T04:50:24.784Z,99745.69
2022-12-18T04:51:26.934Z,99744.28
2022-12-18T04:52:28.677Z,99736.22
2022-12-18T04:53:30.179Z,99736.22
2022-12-18T04:54:31.619Z,99731.09
2022-12-18T04:55:33.358Z,99724.38
2022-12-18T04:56:34.778Z,99729.69
2022-12-18T04:57:36.246Z,99735.03
2022-12-18T04:58:39.110Z,99732.88
2022-12-18T04:59:41.237Z,99729.31
2022-12-18T05:00:42.691Z,99734.63
2022-12-18T05:01:44.279Z,99739.56
2022-12-18T05:02:46.581Z,99742.69
2022-12-18T05:03:48.701Z,99748.00
2022-12-18T05:04:50.511Z,99746.06
2022-12-18T05:05:52.335Z,99745.66
2022-12-18T05:06:53.754Z,99741.88
2022-12-18T05:07:55.299Z,99745.06
2022-12-18T05:08:56.694Z,99736.16
2022-12-18T05:09:58.452Z,99735.38
2022-12-18T05:11:01.919Z,99733.59
2022-12-18T05:12:03.492Z,99731.66
2022-12-18T05:13:04.953Z,99731.03
2022-12-18T05:14:06.357Z,99728.44
2022-12-18T05:15:08.315Z,99730.03
2022-12-18T05:16:09.931Z,99734.16
2022-12-18T05:17:11.441Z,99739.66
2022-12-18T05:18:12.842Z,99740.44
2022-12-18T05:19:14.325Z,99741.44
2022-12-18T05:20:16.423Z,99740.25
2022-12-18T05:21:17.936Z,99734.13
2022-12-18T05:22:19.398Z,99740.41
2022-12-18T05:23:22.601Z,99744.13
2022-12-18T05:24:24.098Z,99753.59
2022-12-18T05:25:26.000Z,99751.41
2022-12-18T05:26:27.446Z,99752.00
2022-12-18T05:27:28.863Z,99752.97
2022-12-18T05:28:32.015Z,99754.78
2022-12-18T05:29:33.445Z,99748.44
2022-12-18T05:30:35.392Z,99753.78
2022-12-18T05:31:39.677Z,99754.16
2022-12-18T05:32:42.022Z,99755.50
2022-12-18T05:33:43.978Z,99750.97
2022-12-18T05:34:45.695Z,99750.38
2022-12-18T05:36:01.562Z,99750.56
2022-12-18T05:37:02.989Z,99756.06
2022-12-18T05:38:04.420Z,99752.91
2022-12-18T05:39:05.906Z,99739.25
2022-12-18T05:40:08.216Z,99740.63
2022-12-18T05:41:10.790Z,99750.28
2022-12-18T05:42:12.226Z,99744.19
2022-12-18T05:43:17.962Z,99753.63
2022-12-18T05:44:22.509Z,99748.50
2022-12-18T05:45:24.312Z,99754.00
2022-12-18T05:46:25.873Z,99751.59
2022-12-18T05:47:28.666Z,99759.09
2022-12-18T05:48:30.070Z,99760.66
2022-12-18T05:49:31.518Z,99766.19
2022-12-18T05:50:36.657Z,99753.91
2022-12-18T05:51:38.105Z,99758.31
2022-12-18T05:52:40.221Z,99761.50
2022-12-18T05:53:43.283Z,99754.75
2022-12-18T05:54:44.923Z,99758.69
2022-12-18T05:55:47.264Z,99756.66
2022-12-18T05:56:49.131Z,99755.84
2022-12-18T05:57:50.608Z,99757.25
2022-12-18T05:58:54.304Z,99759.81
2022-12-18T05:59:55.815Z,99761.97
2022-12-18T06:00:57.967Z,99757.19
2022-12-18T06:01:59.566Z,99763.72
2022-12-18T06:03:01.676Z,99757.00
2022-12-18T06:04:03.393Z,99760.91
2022-12-18T06:05:06.071Z,99761.69
2022-12-18T06:06:29.461Z,99755.00
2022-12-18T06:07:31.111Z,99758.31
2022-12-18T06:08:32.669Z,99759.28
2022-12-18T06:09:34.115Z,99763.00
2022-12-18T06:10:36.118Z,99765.72
2022-12-18T06:11:38.589Z,99776.78
2022-12-18T06:12:40.478Z,99774.78
2022-12-18T06:13:42.391Z,99778.34
2022-12-18T06:14:43.969Z,99778.13
2022-12-18T06:15:45.790Z,99777.16
2022-12-18T06:16:47.282Z,99783.44
2022-12-18T06:17:48.948Z,99780.25
2022-12-18T06:18:50.401Z,99787.75
2022-12-18T06:19:51.820Z,99791.13
2022-12-18T06:20:57.794Z,99779.84
2022-12-18T06:21:59.924Z,99779.84
2022-12-18T06:23:01.411Z,99782.00
2022-12-18T06:24:02.894Z,99773.06
2022-12-18T06:25:04.999Z,99777.19
2022-12-18T06:26:08.421Z,99776.63
2022-12-18T06:27:09.846Z,99784.50
2022-12-18T06:28:11.307Z,99777.16
2022-12-18T06:29:12.738Z,99776.38
2022-12-18T06:30:14.880Z,99776.69
2022-12-18T06:31:16.605Z,99771.94
2022-12-18T06:32:18.153Z,99772.06
2022-12-18T06:33:19.682Z,99767.94
2022-12-18T06:34:21.138Z,99766.00
2022-12-18T06:35:22.622Z,99764.44
2022-12-18T06:36:24.442Z,99768.72
2022-12-18T06:37:27.077Z,99767.94
2022-12-18T06:38:28.617Z,99774.09
2022-12-18T06:39:30.607Z,99775.88
2022-12-18T06:40:32.121Z,99781.44
2022-12-18T06:41:33.521Z,99787.34
2022-12-18T06:42:35.050Z,99785.38
2022-12-18T06:43:37.568Z,99786.50
2022-12-18T06:44:39.717Z,99784.91
2022-12-18T06:45:41.253Z,99801.09
2022-12-18T06:46:42.709Z,99792.38
2022-12-18T06:47:44.650Z,99789.44
2022-12-18T06:48:50.931Z,99793.81
2022-12-18T06:49:52.701Z,99791.59
2022-12-18T06:50:54.139Z,99786.09
2022-12-18T06:51:55.561Z,99792.75
2022-12-18T06:52:57.146Z,99791.69
2022-12-18T06:53:58.721Z,99794.22
2022-12-18T06:55:00.985Z,99795.00
2022-12-18T06:56:10.365Z,99803.72
2022-12-18T06:57:12.463Z,99798.13
2022-12-18T06:58:13.913Z,99800.19
2022-12-18T06:59:15.719Z,99797.59
2022-12-18T07:00:17.504Z,99802.13
2022-12-18T07:01:19.366Z,99792.06
2022-12-18T07:02:21.002Z,99800.78
2022-12-18T07:03:22.515Z,99800.34
2022-12-18T07:04:29.918Z,99796.50
2022-12-18T07:05:31.417Z,99799.78
2022-12-18T07:06:32.826Z,99800.94
2022-12-18T07:07:35.743Z,99794.16
2022-12-18T07:08:37.176Z,99795.53
2022-12-18T07:09:38.928Z,99804.38
2022-12-18T07:10:47.400Z,99797.25
2022-12-18T07:11:49.014Z,99797.25
2022-12-18T07:12:50.440Z,99795.59
2022-12-18T07:13:53.840Z,99800.31
2022-12-18T07:14:55.585Z,99795.38
2022-12-18T07:16:04.758Z,99792.00
2022-12-18T07:17:06.662Z,99789.00
2022-12-18T07:18:08.499Z,99793.75
2022-12-18T07:19:10.292Z,99780.66
2022-12-18T07:20:11.890Z,99783.88
2022-12-18T07:21:16.110Z,99790.31
2022-12-18T07:22:17.567Z,99781.81
2022-12-18T07:23:18.974Z,99788.28
2022-12-18T07:24:20.473Z,99780.06
2022-12-18T07:25:22.438Z,99781.00
2022-12-18T07:26:24.328Z,99784.69
2022-12-18T07:27:25.755Z,99778.56
2022-12-18T07:28:27.567Z,99783.00
2022-12-18T07:29:29.780Z,99777.63
2022-12-18T07:30:31.259Z,99776.66
2022-12-18T07:31:32.719Z,99783.50
2022-12-18T07:32:34.209Z,99782.28
2022-12-18T07:33:36.198Z,99781.84
2022-12-18T07:34:37.781Z,99789.56
2022-12-18T07:35:39.222Z,99795.84
2022-12-18T07:36:40.870Z,99797.88
2022-12-18T07:37:42.295Z,99791.50
2022-12-18T07:38:43.990Z,99794.78
2022-12-18T07:39:45.433Z,99793.69
2022-12-18T07:40:47.141Z,99800.63
2022-12-18T07:42:08.512Z,99804.75
2022-12-18T07:43:09.931Z,99800.88
2022-12-18T07:44:11.853Z,99806.75
2022-12-18T07:45:13.325Z,99800.03
2022-12-18T07:46:16.682Z,99807.53
2022-12-18T07:47:18.177Z,99806.09
2022-12-18T07:48:19.600Z,99807.31
2022-12-18T07:49:21.173Z,99816.59
2022-12-18T07:50:22.937Z,99820.19
2022-12-18T07:51:24.401Z,99822.56
2022-12-18T07:52:26.450Z,99822.88
2022-12-18T07:53:28.333Z,99824.13
2022-12-18T07:54:29.766Z,99820.91
2022-12-18T07:55:59.973Z,99816.88
2022-12-18T07:56:53.921Z,99826.19
2022-12-18T07:58:00.655Z,99824.88
2022-12-18T07:59:03.233Z,99826.47
2022-12-18T08:00:05.216Z,99828.47
2022-12-18T08:01:08.151Z,99830.50
2022-12-18T08:02:09.776Z,99832.41
2022-12-18T08:03:11.422Z,99835.19
2022-12-18T08:04:13.679Z,99828.59
2022-12-18T08:05:15.151Z,99828.19
2022-12-18T08:06:16.594Z,99829.31
2022-12-18T08:07:18.040Z,99833.44
2022-12-18T08:08:19.448Z,99828.84
2022-12-18T08:09:20.958Z,99824.03
2022-12-18T08:10:22.830Z,99827.75
2022-12-18T08:11:26.501Z,99829.44
2022-12-18T08:12:27.946Z,99827.22
2022-12-18T08:13:29.488Z,99825.53
2022-12-18T08:14:30.957Z,99823.72
2022-12-18T08:15:32.375Z,99826.88
2022-12-18T08:16:33.821Z,99825.41
2022-12-18T08:17:35.517Z,99825.66
2022-12-18T08:18:38.244Z,99831.50
2022-12-18T08:19:39.722Z,99824.75
2022-12-18T08:20:41.148Z,99827.13
2022-12-18T08:21:42.622Z,99825.66
2022-12-18T08:22:44.028Z,99834.97
2022-12-18T08:23:46.131Z,99829.59
2022-12-18T08:24:48.007Z,99830.81
2022-12-18T08:25:49.681Z,99841.84
2022-12-18T08:27:01.050Z,99838.31
2022-12-18T08:28:12.946Z,99836.09
2022-12-18T08:29:19.942Z,99837.09
2022-12-18T08:30:23.119Z,99837.09
2022-12-18T08:31:25.039Z,99835.66
2022-12-18T08:32:28.126Z,99835.75
2022-12-18T08:33:29.884Z,99836.44
2022-12-18T08:34:31.808Z,99836.66
2022-12-18T08:35:42.509Z,99828.34
2022-12-18T08:36:46.998Z,99835.88
2022-12-18T08:37:48.478Z,99835.41
2022-12-18T08:38:50.330Z,99836.31
2022-12-18T08:39:51.817Z,99830.47
2022-12-18T08:41:03.402Z,99833.72
2022-12-18T08:42:23.364Z,99839.44
2022-12-18T08:43:43.848Z,99835.88
2022-12-18T08:44:45.369Z,99838.56
2022-12-18T08:45:46.905Z,99839.81
2022-12-18T08:46:48.419Z,99852.16
2022-12-18T08:47:49.855Z,99850.56
2022-12-18T08:48:52.878Z,99841.38
2022-12-18T08:49:54.338Z,99837.00
2022-12-18T08:51:00.593Z,99846.75
2022-12-18T08:52:03.644Z,99840.69
2022-12-18T08:53:05.383Z,99834.50
2022-12-18T08:54:07.791Z,99839.25
2022-12-18T08:55:09.954Z,99828.00
2022-12-18T08:56:12.322Z,99827.44
2022-12-18T08:57:13.741Z,99824.06
2022-12-18T08:58:15.150Z,99822.28
2022-12-18T08:59:20.097Z,99820.56
2022-12-18T09:00:22.388Z,99822.13
2022-12-18T09:01:25.194Z,99825.50
2022-12-18T09:02:26.922Z,99827.28
2022-12-18T09:03:28.798Z,99827.28
2022-12-18T09:04:30.337Z,99829.44
2022-12-18T09:05:31.937Z,99826.28
2022-12-18T09:06:33.433Z,99833.56
2022-12-18T09:07:34.870Z,99825.34
2022-12-18T09:08:38.037Z,99825.81
2022-12-18T09:09:40.030Z,99826.13
2022-12-18T09:10:45.980Z,99824.03
2022-12-18T09:11:47.437Z,99817.06
2022-12-18T09:12:48.819Z,99821.94
2022-12-18T09:13:51.703Z,99824.63
2022-12-18T09:14:53.209Z,99821.59
2022-12-18T09:15:56.217Z,99824.03
2022-12-18T09:16:57.636Z,99824.47
2022-12-18T09:17:59.065Z,99820.88
2022-12-18T09:19:00.756Z,99827.50
2022-12-18T09:20:02.337Z,99823.69
2022-12-18T09:21:11.534Z,99822.03
2022-12-18T09:22:12.995Z,99822.13
2022-12-18T09:23:15.472Z,99828.50
2022-12-18T09:24:18.135Z,99827.19
2022-12-18T09:25:19.708Z,99824.91
2022-12-18T09:26:22.466Z,99826.72
2022-12-18T09:27:23.888Z,99828.59
2022-12-18T09:28:25.373Z,99831.09
2022-12-18T09:29:27.207Z,99826.94
2022-12-18T09:30:28.808Z,99822.66
2022-12-18T09:31:30.285Z,99822.22
2022-12-18T09:32:31.741Z,99823.69
2022-12-18T09:33:33.242Z,99813.25
2022-12-18T09:34:34.880Z,99814.59
2022-12-18T09:35:40.839Z,99816.06
2022-12-18T09:36:42.331Z,99809.13
2022-12-18T09:37:45.175Z,99809.75
2022-12-18T09:38:47.017Z,99814.91
2022-12-18T09:39:48.473Z,99800.09
2022-12-18T09:40:55.016Z,99801.03
2022-12-18T09:41:58.875Z,99799.41
2022-12-18T09:43:04.226Z,99795.78
2022-12-18T09:44:15.194Z,99797.44
2022-12-18T09:45:18.061Z,99791.84
2022-12-18T09:46:32.143Z,99794.06
2022-12-18T09:47:38.655Z,99804.66
2022-12-18T09:48:43.990Z,99795.56
2022-12-18T09:49:48.671Z,99794.44
2022-12-18T09:50:52.264Z,99788.97
2022-12-18T09:52:01.004Z,99792.78
2022-12-18T09:53:16.890Z,99800.69
2022-12-18T09:54:26.780Z,99796.94
2022-12-18T09:55:42.251Z,99791.84
2022-12-18T09:56:45.550Z,99793.44
2022-12-18T09:57:52.352Z,99796.34
2022-12-18T09:59:00.005Z,99804.75
2022-12-18T10:00:16.008Z,99798.09
2022-12-18T10:01:23.713Z,99800.84
2022-12-18T10:02:27.582Z,99799.13
2022-12-18T10:03:31.991Z,99800.44
2022-12-18T10:04:34.290Z,99797.66
2022-12-18T10:05:42.933Z,99797.97
2022-12-18T10:06:49.673Z,99789.56
2022-12-18T10:07:56.434Z,99791.38
2022-12-18T10:09:12.341Z,99785.13
2022-12-18T10:10:47.492Z,99779.47
2022-12-18T10:12:01.239Z,99789.81
2022-12-18T10:13:18.074Z,99791.06
2022-12-18T10:14:42.988Z,99788.00
2022-12-18T10:16:10.226Z,99786.28
2022-12-18T10:17:22.091Z,99779.34
2022-12-18T10:18:48.771Z,99774.31
2022-12-18T10:20:05.855Z,99771.53
2022-12-18T10:21:21.241Z,99772.22
2022-12-18T10:22:27.580Z,99769.41
2022-12-18T10:24:09.993Z,99763.13
2022-12-18T10:25:20.411Z,99774.09
2022-12-18T10:26:21.989Z,99771.13
2022-12-18T10:27:26.989Z,99771.13
2022-12-18T10:28:31.570Z,99762.06
2022-12-18T10:29:33.466Z,99768.47
2022-12-18T10:30:34.962Z,99773.19
2022-12-18T10:31:36.793Z,99767.63
2022-12-18T10:32:38.792Z,99767.84
2022-12-18T10:33:42.230Z,99772.72
2022-12-18T10:34:47.238Z,99764.25
2022-12-18T10:35:58.800Z,99766.50
2022-12-18T10:37:02.720Z,99761.94
2022-12-18T10:38:06.874Z,99769.31
2022-12-18T10:39:23.620Z,99766.59
2022-12-18T10:40:25.140Z,99772.25
2022-12-18T10:41:29.181Z,99764.31
2022-12-18T10:42:31.023Z,99772.97
2022-12-18T10:43:37.650Z,99775.47
2022-12-18T10:44:39.670Z,99774.75
2022-12-18T10:45:42.711Z,99775.91
2022-12-18T10:46:47.074Z,99775.19
2022-12-18T10:47:50.271Z,99782.81
2022-12-18T10:48:53.879Z,99782.66
2022-12-18T10:49:56.766Z,99783.91
2022-12-18T10:51:14.005Z,99783.59
2022-12-18T10:52:18.471Z,99783.22
2022-12-18T10:53:26.421Z,99793.44
2022-12-18T10:54:30.243Z,99790.94
2022-12-18T10:55:38.567Z,99781.31
2022-12-18T10:56:40.250Z,99783.44
2022-12-18T10:57:42.722Z,99789.34
2022-12-18T10:58:56.799Z,99777.53
2022-12-18T11:00:00.331Z,99783.47
2022-12-18T11:01:15.029Z,99788.69
2022-12-18T11:02:28.498Z,99787.34
2022-12-18T11:03:37.018Z,99789.66
2022-12-18T11:04:51.967Z,99788.88
2022-12-18T11:06:07.196Z,99787.72
2022-12-18T11:07:09.962Z,99785.53
2022-12-18T11:08:23.646Z,99789.94
2022-12-18T11:09:32.978Z,99783.50
2022-12-18T11:10:36.339Z,99776.22
2022-12-18T11:11:38.369Z,99776.16
2022-12-18T11:12:40.531Z,99771.22
2022-12-18T11:13:42.113Z,99768.19
2022-12-18T11:14:48.665Z,99763.22
2022-12-18T11:15:50.453Z,99760.38
2022-12-18T11:18:31.416Z,99755.38
2022-12-18T11:19:38.983Z,99760.59
2022-12-18T11:20:40.452Z,99763.91
2022-12-18T11:21:43.335Z,99760.16
2022-12-18T11:22:59.258Z,99763.28
2022-12-18T11:24:00.706Z,99758.97
2022-12-18T11:26:36.789Z,99762.69
2022-12-18T11:27:40.238Z,99755.13
2022-12-18T11:28:52.069Z,99755.81
2022-12-18T11:29:53.519Z,99755.59
2022-12-18T11:31:17.214Z,99752.59
2022-12-18T11:32:33.973Z,99753.47
2022-12-18T11:33:37.590Z,99755.75
2022-12-18T11:34:39.554Z,99752.78
2022-12-18T11:35:49.154Z,99750.97
2022-12-18T11:36:51.225Z,99754.72
2022-12-18T11:38:07.466Z,99757.00
2022-12-18T11:39:25.465Z,99753.47
2022-12-18T11:40:40.845Z,99754.97
2022-12-18T11:42:10.093Z,99749.38
2022-12-18T11:43:17.971Z,99745.88
2022-12-18T11:44:43.590Z,99735.88
2022-12-18T11:45:56.287Z,99738.75
2022-12-18T11:47:08.860Z,99742.94
2022-12-18T11:48:29.403Z,99734.72
2022-12-18T11:49:35.909Z,99737.72
2022-12-18T11:50:37.599Z,99735.19
2022-12-18T11:51:52.682Z,99735.38
2022-12-18T11:52:57.507Z,99729.06
2022-12-18T11:54:11.196Z,99724.94
2022-12-18T11:55:36.129Z,99721.47
2022-12-18T11:56:48.465Z,99724.88
2022-12-18T11:58:13.519Z,99720.16
2022-12-18T11:59:41.049Z,99717.22
2022-12-18T12:01:02.978Z,99717.38
2022-12-18T12:02:29.269Z,99720.88
2022-12-18T12:03:55.316Z,99722.41
2022-12-18T12:05:05.301Z,99723.41
2022-12-18T12:06:30.294Z,99718.13
2022-12-18T12:07:53.401Z,99725.91
2022-12-18T12:09:07.812Z,99723.38
2022-12-18T12:10:27.995Z,99724.09
2022-12-18T12:11:48.045Z,99730.91
2022-12-18T12:13:01.369Z,99721.16
2022-12-18T12:14:24.170Z,99720.22
2022-12-18T12:15:43.890Z,99711.69
2022-12-18T12:16:54.831Z,99711.22
2022-12-18T12:18:16.735Z,99709.94
2022-12-18T12:19:41.076Z,99709.41
2022-12-18T12:20:45.216Z,99705.00
2022-12-18T12:22:28.821Z,99707.13
2022-12-18T12:23:41.456Z,99695.72
2022-12-18T12:25:01.735Z,99703.72
2022-12-18T12:26:08.793Z,99702.59
2022-12-18T12:27:30.506Z,99704.84
2022-12-18T12:28:47.235Z,99702.59
2022-12-18T12:29:57.729Z,99702.09
2022-12-18T12:31:34.814Z,99704.47
2022-12-18T12:32:46.715Z,99701.19
2022-12-18T12:34:12.734Z,99702.72
2022-12-18T12:35:17.715Z,99704.00
2022-12-18T12:36:31.968Z,99703.25
2022-12-18T12:37:58.311Z,99696.22
2022-12-18T12:39:04.184Z,99698.53
2022-12-18T12:40:26.733Z,99705.75
2022-12-18T12:41:52.425Z,99692.31
2022-12-18T12:43:15.820Z,99698.75
2022-12-18T12:44:43.837Z,99693.63
2022-12-18T12:45:51.403Z,99690.28
2022-12-18T12:46:57.565Z,99690.03
2022-12-18T12:48:02.569Z,99700.47
2022-12-18T12:49:10.912Z,99696.38
2022-12-18T12:50:17.801Z,99701.59
2022-12-18T12:51:27.294Z,99688.94
2022-12-18T12:52:36.414Z,99695.44
2022-12-18T12:53:40.149Z,99695.75
2022-12-18T12:54:43.670Z,99689.06
2022-12-18T12:55:45.366Z,99696.88
2022-12-18T12:57:06.961Z,99685.75